Time;durP1;ratioP1;P1;durP2;ratioP2;P2;SDS_P1;SDS_P2;PMS_P1;PMS_P2;Temp;Humidity;BMP_temperature;BMP_pressure;BME280_temperature;BME280_humidity;BME280_pressure;Samples;Min_cycle;Max_cycle;Signal;HPM_P1;HPM_P2
2023/06/25 00:02:06;;;;;;;15.80;11.50;;;;;;;17.45;77.23;99415.51;223690;181;145873;-63
2023/06/25 00:07:09;;;;;;;15.10;11.00;;;;;;;17.42;77.53;99418.42;223706;181;140030;-65
2023/06/25 00:12:13;;;;;;;20.30;11.50;;;;;;;17.46;77.49;99410.54;223825;182;136877;-65
2023/06/25 00:17:19;;;;;;;16.50;11.50;;;;;;;17.46;77.40;99413.03;223745;181;145313;-65
2023/06/25 00:22:23;;;;;;;16.90;12.20;;;;;;;17.47;77.34;99411.67;223698;181;138439;-65
2023/06/25 00:27:27;;;;;;;17.10;11.70;;;;;;;17.37;77.35;99410.98;223701;181;139830;-65
2023/06/25 00:32:30;;;;;;;17.70;11.40;;;;;;;17.35;77.46;99405.05;223770;181;145745;-65
2023/06/25 00:37:36;;;;;;;15.50;11.40;;;;;;;17.36;77.36;99404.05;223678;181;138411;-64
2023/06/25 00:42:43;;;;;;;17.90;12.40;;;;;;;17.33;77.23;99401.81;223811;181;137832;-64
2023/06/25 00:47:52;;;;;;;23.20;12.70;;;;;;;17.31;77.12;99391.77;223751;182;145170;-66
2023/06/25 00:52:59;;;;;;;15.60;12.30;;;;;;;17.23;77.07;99392.05;223689;182;139263;-65
2023/06/25 00:58:03;;;;;;;17.30;11.40;;;;;;;17.12;77.03;99391.03;223605;181;136950;-65
2023/06/25 01:03:39;;;;;;;17.00;11.40;;;;;;;17.06;77.14;99392.81;223753;182;145808;-66
2023/06/25 01:08:49;;;;;;;16.20;11.80;;;;;;;17.05;76.95;99390.55;223662;181;138710;-66
2023/06/25 01:13:53;;;;;;;17.20;12.50;;;;;;;16.96;76.89;99392.13;223784;181;137162;-65
2023/06/25 01:19:02;;;;;;;18.30;13.30;;;;;;;16.95;76.96;99390.64;223740;181;145794;-65
2023/06/25 01:24:07;;;;;;;17.30;13.10;;;;;;;16.94;76.81;99384.60;223674;181;139602;-65
2023/06/25 01:29:11;;;;;;;23.70;12.60;;;;;;;16.87;76.77;99377.30;223734;182;138324;-65
2023/06/25 01:34:14;;;;;;;20.50;13.60;;;;;;;16.86;77.05;99373.83;223799;181;145366;-63
2023/06/25 01:39:19;;;;;;;24.70;14.40;;;;;;;16.90;76.91;99371.34;223700;181;138282;-62
2023/06/25 01:44:27;;;;;;;17.40;13.20;;;;;;;16.85;77.00;99368.16;223821;182;136674;-67
2023/06/25 01:49:30;;;;;;;21.90;13.70;;;;;;;16.81;77.06;99363.61;223747;182;145705;-66
2023/06/25 01:54:35;;;;;;;19.00;12.50;;;;;;;16.73;77.08;99358.02;223770;181;139043;-64
2023/06/25 01:59:38;;;;;;;17.40;12.80;;;;;;;16.72;77.43;99360.25;223773;181;137817;-67
2023/06/25 02:04:42;;;;;;;17.30;12.80;;;;;;;16.73;77.42;99356.75;223705;181;145292;-67
2023/06/25 02:09:46;;;;;;;17.00;12.70;;;;;;;16.68;77.58;99356.08;223726;181;138264;-66
2023/06/25 02:14:49;;;;;;;16.80;12.90;;;;;;;16.65;77.67;99357.73;223758;181;137355;-64
2023/06/25 02:19:59;;;;;;;16.10;12.00;;;;;;;16.63;77.81;99351.86;223763;181;145787;-66
2023/06/25 02:25:02;;;;;;;19.50;12.60;;;;;;;16.58;77.81;99349.95;223753;181;138234;-68
2023/06/25 02:30:06;;;;;;;15.30;11.40;;;;;;;16.57;77.91;99353.78;223740;181;138274;-66
2023/06/25 02:35:09;;;;;;;15.90;12.20;;;;;;;16.55;78.03;99351.41;223796;182;145312;-65
2023/06/25 02:40:13;;;;;;;17.00;13.30;;;;;;;16.55;77.93;99348.50;223733;182;138326;-64
2023/06/25 02:45:16;;;;;;;18.80;13.80;;;;;;;16.54;77.95;99345.17;223691;181;137236;-66
2023/06/25 02:50:19;;;;;;;14.60;12.20;;;;;;;16.52;78.02;99346.08;223774;181;145309;-66
2023/06/25 02:55:23;;;;;;;15.00;11.60;;;;;;;16.52;77.97;99353.80;223696;181;140000;-66
2023/06/25 03:00:27;;;;;;;18.50;12.40;;;;;;;16.56;77.92;99354.50;223568;181;136950;-64
2023/06/25 03:05:32;;;;;;;19.60;15.70;;;;;;;16.58;77.79;99352.44;223683;181;145728;-67
2023/06/25 03:10:37;;;;;;;21.20;15.10;;;;;;;16.58;78.00;99355.09;223686;177;138431;-63
2023/06/25 03:15:41;;;;;;;19.20;14.60;;;;;;;16.52;78.04;99350.88;223737;181;137627;-64
2023/06/25 03:20:45;;;;;;;23.20;15.10;;;;;;;16.47;78.28;99352.95;223638;181;145760;-64
2023/06/25 03:25:48;;;;;;;23.20;16.10;;;;;;;16.49;78.37;99354.23;223870;181;138563;-66
2023/06/25 03:30:58;;;;;;;29.00;18.60;;;;;;;16.49;78.65;99360.11;223741;182;137366;-65
2023/06/25 03:36:05;;;;;;;26.90;19.60;;;;;;;16.48;78.93;99358.45;223798;181;145634;-65
2023/06/25 03:41:09;;;;;;;27.80;21.50;;;;;;;16.50;79.13;99355.39;223727;181;138133;-65
2023/06/25 03:46:12;;;;;;;25.80;20.00;;;;;;;16.47;79.33;99357.13;223659;182;138391;-64
2023/06/25 03:51:21;;;;;;;28.20;19.60;;;;;;;16.42;79.59;99348.36;223683;182;146604;-63
2023/06/25 03:56:24;;;;;;;30.20;21.30;;;;;;;16.52;79.86;99354.89;223771;181;138585;-64
2023/06/25 04:01:27;;;;;;;28.60;21.10;;;;;;;16.60;79.87;99352.06;223763;181;138098;-61
2023/06/25 04:06:32;;;;;;;31.50;22.30;;;;;;;16.62;79.82;99354.63;223749;181;145845;-67
2023/06/25 04:11:38;;;;;;;29.90;20.80;;;;;;;16.61;80.09;99354.02;223717;182;139849;-63
2023/06/25 04:16:41;;;;;;;28.20;20.60;;;;;;;16.63;79.94;99349.84;223751;181;137873;-67
2023/06/25 04:21:44;;;;;;;27.30;20.20;;;;;;;16.66;79.97;99347.45;223732;181;145180;-63
2023/06/25 04:26:48;;;;;;;30.30;22.60;;;;;;;16.66;80.22;99348.73;223786;181;139786;-65
2023/06/25 04:31:51;;;;;;;32.40;22.80;;;;;;;16.71;80.02;99350.48;223830;182;136772;-65
2023/06/25 04:36:56;;;;;;;28.90;20.70;;;;;;;16.77;80.00;99351.98;223703;181;145574;-62
2023/06/25 04:42:01;;;;;;;127.80;98.80;;;;;;;16.79;79.97;99349.14;223578;182;139930;-65
2023/06/25 04:47:04;;;;;;;37.50;25.40;;;;;;;16.86;79.91;99349.83;223767;182;138374;-65
2023/06/25 04:52:17;;;;;;;83.40;65.40;;;;;;;16.86;79.82;99346.73;223622;182;145759;-65
2023/06/25 04:57:20;;;;;;;38.50;26.90;;;;;;;16.80;79.97;99342.04;223614;181;138535;-66
2023/06/25 05:02:24;;;;;;;33.40;24.00;;;;;;;16.77;80.33;99340.52;223742;181;139884;-64
2023/06/25 05:07:27;;;;;;;33.10;23.70;;;;;;;16.84;80.40;99338.13;223601;181;145619;-65
2023/06/25 05:12:31;;;;;;;38.00;25.00;;;;;;;16.92;80.40;99330.98;223670;181;138334;-68
2023/06/25 05:17:34;;;;;;;39.10;26.00;;;;;;;17.05;80.27;99331.37;223731;181;136966;-63
2023/06/25 05:22:38;;;;;;;38.10;27.10;;;;;;;17.17;79.84;99336.23;223572;181;146175;-65
2023/06/25 05:27:41;;;;;;;37.20;25.40;;;;;;;17.24;79.51;99338.15;223627;181;138202;-66
2023/06/25 05:32:48;;;;;;;39.00;24.80;;;;;;;17.30;79.18;99333.04;223776;181;141619;-65
2023/06/25 05:37:51;;;;;;;36.70;24.40;;;;;;;17.36;79.02;99334.44;223753;182;145235;-65
2023/06/25 05:42:55;;;;;;;39.30;26.40;;;;;;;17.44;78.58;99337.70;223686;181;138489;-68
2023/06/25 05:47:58;;;;;;;35.20;24.60;;;;;;;17.46;78.26;99333.77;223719;182;140588;-65
2023/06/25 05:53:01;;;;;;;34.40;23.40;;;;;;;17.46;78.11;99334.68;223767;181;146879;-68
2023/06/25 05:58:05;;;;;;;33.80;24.00;;;;;;;17.49;78.48;99329.56;223724;181;137946;-66
2023/06/25 06:03:08;;;;;;;36.40;24.60;;;;;;;17.62;78.81;99323.08;223722;181;136790;-66
2023/06/25 06:08:12;;;;;;;35.00;26.70;;;;;;;17.77;78.40;99319.61;223773;181;146267;-67
2023/06/25 06:13:15;;;;;;;29.80;21.20;;;;;;;17.81;77.38;99319.84;223632;182;138705;-66
2023/06/25 06:18:19;;;;;;;36.00;24.20;;;;;;;17.85;77.21;99317.52;223664;181;137797;-69
2023/06/25 06:23:24;;;;;;;27.30;20.50;;;;;;;17.92;77.37;99311.30;223578;181;145561;-69
2023/06/25 06:28:27;;;;;;;27.60;21.00;;;;;;;18.00;76.80;99312.29;223745;182;138878;-65
2023/06/25 06:33:31;;;;;;;28.00;20.60;;;;;;;18.06;77.00;99309.06;223645;181;137477;-64
2023/06/25 06:38:36;;;;;;;27.30;19.90;;;;;;;18.13;77.06;99310.55;223749;182;147106;-66
2023/06/25 06:43:39;;;;;;;70.30;52.10;;;;;;;18.17;77.19;99311.98;223743;181;139711;-68
2023/06/25 06:50:46;;;;;;;30.80;21.10;;;;;;;18.35;76.93;99307.29;219795;188;666092;-66
2023/06/25 06:55:49;;;;;;;34.70;23.90;;;;;;;18.46;76.87;99306.17;223755;182;137694;-64
2023/06/25 07:00:54;;;;;;;24.80;18.60;;;;;;;18.65;77.15;99302.11;223639;183;143670;-66
2023/06/25 07:05:58;;;;;;;23.80;17.60;;;;;;;19.04;76.50;99293.11;223715;183;139806;-65
2023/06/25 07:11:02;;;;;;;27.70;18.40;;;;;;;19.31;75.40;99293.08;223600;183;137082;-66
2023/06/25 07:16:05;;;;;;;22.70;17.60;;;;;;;19.49;74.36;99291.89;223695;182;143375;-66
2023/06/25 07:21:09;;;;;;;48.20;38.70;;;;;;;19.57;73.27;99290.77;223515;183;139013;-65
2023/06/25 07:26:13;;;;;;;23.80;16.90;;;;;;;19.58;73.14;99280.64;223708;182;137029;-65
2023/06/25 07:31:16;;;;;;;19.20;15.20;;;;;;;19.66;72.80;99275.96;223638;183;143670;-67
2023/06/25 07:36:20;;;;;;;21.30;14.80;;;;;;;19.79;72.33;99278.86;223674;183;138498;-69
2023/06/25 07:41:23;;;;;;;23.40;17.60;;;;;;;19.94;72.55;99283.48;223631;183;137255;-66
2023/06/25 07:51:01;;;;;;;39.20;30.50;;;;;;;20.15;71.64;99268.87;221562;192;692964;-68
2023/06/25 07:56:05;;;;;;;19.00;13.70;;;;;;;20.25;71.68;99268.96;223607;185;137102;-64
2023/06/25 08:01:08;;;;;;;18.60;13.30;;;;;;;20.39;71.29;99266.66;223764;181;144261;-67
2023/06/25 08:06:12;;;;;;;19.80;14.50;;;;;;;20.51;70.58;99265.46;223719;182;140087;-65
2023/06/25 08:11:15;;;;;;;21.20;14.30;;;;;;;20.65;70.49;99261.77;223795;181;136655;-66
2023/06/25 08:16:19;;;;;;;19.30;13.80;;;;;;;20.80;70.45;99257.19;223882;181;143276;-65
2023/06/25 08:21:23;;;;;;;17.20;13.40;;;;;;;20.90;70.13;99250.05;223674;181;138709;-65
2023/06/25 08:26:27;;;;;;;174.50;131.60;;;;;;;21.01;69.76;99246.70;223805;181;136932;-65
2023/06/25 08:31:33;;;;;;;18.20;13.30;;;;;;;21.16;69.66;99242.08;223810;182;143524;-65
2023/06/25 08:36:41;;;;;;;20.80;12.70;;;;;;;21.38;69.82;99238.60;223775;181;138986;-65
2023/06/25 08:41:44;;;;;;;14.50;11.40;;;;;;;21.60;69.05;99233.52;223676;181;137935;-67
2023/06/25 08:46:49;;;;;;;18.90;13.00;;;;;;;21.76;68.44;99231.74;223724;181;146882;-66
2023/06/25 08:52:01;;;;;;;45.40;36.60;;;;;;;21.93;68.17;99227.11;223756;181;138306;-64
2023/06/25 08:57:07;;;;;;;27.70;20.70;;;;;;;22.02;66.76;99224.88;223784;181;137371;-66
2023/06/25 09:02:11;;;;;;;;;;;;;;;22.12;66.34;99222.35;223877;182;145761;-62
2023/06/25 09:07:19;;;;;;;15.60;11.40;;;;;;;22.17;65.03;99222.71;223772;181;139940;-65
2023/06/25 09:12:24;;;;;;;16.30;12.00;;;;;;;22.19;63.71;99227.95;223725;181;137584;-67
2023/06/25 09:17:27;;;;;;;12.70;10.30;;;;;;;22.27;63.76;99221.97;223723;181;145396;-69
2023/06/25 09:22:31;;;;;;;11.50;9.50;;;;;;;22.32;63.29;99216.80;223672;182;139544;-64
2023/06/25 09:27:34;;;;;;;15.80;9.20;;;;;;;22.31;63.17;99222.63;223753;181;137895;-65
2023/06/25 09:32:55;;;;;;;60.90;51.30;;;;;;;22.27;62.25;99219.98;223779;181;144995;-65
2023/06/25 09:38:00;;;;;;;19.00;16.20;;;;;;;22.24;62.25;99218.50;223804;182;138590;-65
2023/06/25 09:43:06;;;;;;;11.00;8.20;;;;;;;22.25;61.13;99212.52;223695;182;137039;-66
2023/06/25 09:48:12;;;;;;;8.30;7.40;;;;;;;22.24;61.25;99207.33;223765;181;146125;-67
2023/06/25 09:53:23;;;;;;;10.30;7.30;;;;;;;22.27;60.98;99204.98;223550;182;138205;-66
2023/06/25 09:58:26;;;;;;;90.70;77.10;;;;;;;22.28;60.87;99201.34;223728;182;136707;-65
2023/06/25 10:03:30;;;;;;;12.00;9.20;;;;;;;22.43;61.57;99193.13;223598;181;145687;-67
2023/06/25 10:08:36;;;;;;;8.00;6.60;;;;;;;22.78;61.58;99187.68;223721;181;138408;-66
2023/06/25 10:13:40;;;;;;;;;;;;;;;23.13;60.04;99180.56;223737;182;137129;-67
2023/06/25 10:18:45;;;;;;;6.80;5.80;;;;;;;23.38;58.35;99175.05;223926;181;145801;-63
2023/06/25 10:24:04;;;;;;;12.70;10.40;;;;;;;23.42;56.19;99175.17;223668;181;138727;-64
2023/06/25 10:29:07;;;;;;;8.00;5.80;;;;;;;23.41;55.64;99173.61;223783;181;137270;-63
2023/06/25 10:34:13;;;;;;;8.30;5.70;;;;;;;23.36;54.98;99175.02;223767;181;145796;-64
2023/06/25 10:39:16;;;;;;;7.90;6.20;;;;;;;23.28;54.20;99175.80;223651;182;138545;-63
2023/06/25 10:44:27;;;;;;;6.70;5.80;;;;;;;23.31;55.79;99166.34;223705;181;136821;-62
2023/06/25 10:50:48;;;;;;;7.80;5.30;;;;;;;23.54;55.34;99160.66;221612;193;665858;-64
2023/06/25 10:55:53;;;;;;;29.00;22.90;;;;;;;23.71;53.58;99154.81;223275;186;136382;-65
2023/06/25 11:00:58;;;;;;;28.00;22.80;;;;;;;24.12;52.66;99146.93;223693;182;143295;-63
2023/06/25 11:06:01;;;;;;;;;;;;;;;24.54;51.37;99145.79;223656;183;139634;-64
2023/06/25 11:11:05;;;;;;;11.10;7.50;;;;;;;24.60;50.83;99144.88;223847;183;131994;-65
2023/06/25 11:16:08;;;;;;;80.90;65.80;;;;;;;24.46;50.23;99146.59;223716;183;143902;-65
2023/06/25 11:21:14;;;;;;;13.90;9.40;;;;;;;24.45;50.82;99140.67;223739;182;139296;-64
2023/06/25 11:26:17;;;;;;;6.00;5.10;;;;;;;24.50;50.51;99138.52;223750;183;136873;-67
2023/06/25 11:31:21;;;;;;;7.90;5.30;;;;;;;24.75;48.82;99129.41;223833;182;143598;-65
2023/06/25 11:36:24;;;;;;;52.90;47.00;;;;;;;25.10;48.07;99130.38;223706;183;138395;-63
2023/06/25 11:41:28;;;;;;;15.20;12.80;;;;;;;25.25;47.69;99129.45;223747;182;137715;-64
2023/06/25 11:46:31;;;;;;;13.00;9.70;;;;;;;25.12;47.76;99129.83;223672;182;145046;-64
2023/06/25 11:51:34;;;;;;;8.00;6.00;;;;;;;24.94;48.16;99123.61;223633;184;141250;-64
2023/06/25 11:56:37;;;;;;;13.60;8.20;;;;;;;24.93;48.62;99115.89;223787;182;135986;-64
2023/06/25 12:01:41;;;;;;;39.80;34.30;;;;;;;24.91;48.28;99111.84;223688;183;145480;-64
2023/06/25 12:06:44;;;;;;;8.50;7.20;;;;;;;25.01;49.02;99101.15;223704;183;138203;-61
2023/06/25 12:11:48;;;;;;;7.50;5.80;;;;;;;25.41;47.64;99090.52;223615;183;136898;-63
2023/06/25 12:16:52;;;;;;;7.30;5.90;;;;;;;25.45;47.41;99084.77;223652;183;146686;-64
2023/06/25 12:21:58;;;;;;;6.50;5.20;;;;;;;25.32;46.87;99082.04;223576;183;138548;-63
2023/06/25 12:27:02;;;;;;;6.50;4.80;;;;;;;25.63;45.73;99073.06;223715;182;138739;-63
2023/06/25 12:32:06;;;;;;;23.80;19.20;;;;;;;26.08;45.10;99064.73;223781;183;148047;-64
2023/06/25 12:37:10;;;;;;;5.50;4.90;;;;;;;26.53;43.11;99064.63;223686;183;138324;-63
2023/06/25 12:42:13;;;;;;;7.70;5.90;;;;;;;26.89;42.94;99057.05;223686;183;138350;-65
2023/06/25 12:50:46;;;;;;;8.30;6.50;;;;;;;27.10;43.22;99053.38;221507;192;666631;-64
2023/06/25 12:55:49;;;;;;;231.80;162.90;;;;;;;26.85;42.71;99052.40;223427;185;135756;-64
2023/06/25 13:00:52;;;;;;;39.90;32.30;;;;;;;26.58;41.42;99047.80;223305;186;145049;-63
2023/06/25 13:06:13;;;;;;;10.90;9.70;;;;;;;26.16;43.62;99051.98;223436;185;138422;-62
2023/06/25 13:11:16;;;;;;;;;;;;;;;25.88;44.76;99049.55;222863;185;137026;-67
2023/06/25 13:16:20;;;;;;;6.10;5.50;;;;;;;26.21;45.12;99041.56;223274;185;143891;-65
2023/06/25 13:21:23;;;;;;;5.10;4.40;;;;;;;26.57;44.15;99038.68;223459;185;139206;-64
2023/06/25 13:26:27;;;;;;;10.20;4.60;;;;;;;26.92;43.36;99037.58;223401;182;136418;-69
2023/06/25 13:31:30;;;;;;;5.20;4.40;;;;;;;27.39;39.70;99034.02;223540;183;143566;-64
2023/06/25 13:36:34;;;;;;;6.20;5.40;;;;;;;27.74;38.95;99032.57;223571;183;139831;-65
2023/06/25 13:41:37;;;;;;;8.70;7.60;;;;;;;27.94;39.94;99023.42;223619;183;137304;-62
2023/06/25 13:46:40;;;;;;;7.40;5.90;;;;;;;27.97;39.99;99019.27;223605;182;146733;-64
2023/06/25 13:51:44;;;;;;;6.90;5.10;;;;;;;28.02;39.83;99013.59;223448;182;140021;-64
2023/06/25 13:56:47;;;;;;;74.00;62.20;;;;;;;27.95;39.73;99008.70;223699;182;136499;-64
2023/06/25 14:01:51;;;;;;;8.80;6.60;;;;;;;27.95;39.72;99006.05;223460;183;145387;-64
2023/06/25 14:06:54;;;;;;;12.40;11.10;;;;;;;28.16;38.96;99002.78;223443;183;138342;-65
2023/06/25 14:11:57;;;;;;;12.10;9.90;;;;;;;28.04;38.90;99000.04;223564;182;136680;-63
2023/06/25 14:17:02;;;;;;;10.10;7.20;;;;;;;27.65;40.21;98998.25;223606;183;146599;-64
2023/06/25 14:22:08;;;;;;;9.70;5.90;;;;;;;27.70;40.69;99000.36;223511;182;138332;-63
2023/06/25 14:27:14;;;;;;;6.80;4.70;;;;;;;27.58;40.83;98997.27;223601;181;136509;-66
2023/06/25 14:32:26;;;;;;;6.60;4.90;;;;;;;27.49;40.98;98995.55;223550;181;145307;-65
2023/06/25 14:37:29;;;;;;;6.50;5.00;;;;;;;27.49;41.18;98993.99;223671;182;139012;-64
2023/06/25 14:42:34;;;;;;;5.80;5.00;;;;;;;27.23;41.26;98997.58;223619;180;137219;-65
2023/06/25 14:50:50;;;;;;;4.90;4.30;;;;;;;26.85;41.43;98993.53;221953;215;665670;-67
2023/06/25 14:55:53;;;;;;;6.50;5.00;;;;;;;26.58;41.28;98997.52;223180;186;136612;-64
2023/06/25 15:00:57;;;;;;;5.90;5.10;;;;;;;26.32;41.81;98994.16;223490;184;145614;-65
2023/06/25 15:06:00;;;;;;;10.90;8.50;;;;;;;26.21;42.13;98993.67;223682;183;139917;-67
2023/06/25 15:11:22;;;;;;;9.00;6.50;;;;;;;26.08;42.52;98989.59;223626;183;136302;-65
2023/06/25 15:16:38;;;;;;;5.60;4.80;;;;;;;25.81;42.42;98992.41;223654;183;143428;-64
2023/06/25 15:21:41;;;;;;;5.80;4.60;;;;;;;25.54;42.79;98994.23;223496;183;138660;-64
2023/06/25 15:26:45;;;;;;;9.20;4.80;;;;;;;25.38;43.43;98988.82;223592;183;136462;-64
2023/06/25 15:31:48;;;;;;;8.50;5.20;;;;;;;25.28;43.90;98990.96;223575;183;143892;-62
2023/06/25 21:18:52;;;;;;;6.90;5.30;;;;;;;20.82;59.68;99074.10;220703;192;666166;-65
2023/06/25 21:23:56;;;;;;;5.80;5.20;;;;;;;20.72;59.42;99072.66;223653;183;136351;-65
2023/06/25 21:28:59;;;;;;;8.30;5.20;;;;;;;20.67;59.53;99072.25;223549;183;143458;-64
2023/06/25 21:34:03;;;;;;;10.60;5.90;;;;;;;20.67;59.83;99071.30;223721;183;138480;-66
2023/06/25 21:39:06;;;;;;;7.10;5.30;;;;;;;20.70;59.48;99071.70;223652;183;136597;-64
2023/06/25 21:44:10;;;;;;;7.80;5.60;;;;;;;20.74;59.36;99075.48;223729;183;143732;-65
2023/06/25 21:49:15;;;;;;;13.70;10.70;;;;;;;20.80;58.59;99073.60;223654;183;138748;-65
2023/06/25 21:54:18;;;;;;;8.30;5.70;;;;;;;20.89;57.98;99073.59;223702;183;139645;-66
2023/06/25 21:59:22;;;;;;;8.10;5.80;;;;;;;20.96;57.40;99071.02;223688;183;143390;-65
2023/06/25 22:04:25;;;;;;;6.50;5.60;;;;;;;21.00;57.29;99076.30;223632;183;138413;-65
2023/06/25 22:09:28;;;;;;;9.30;5.40;;;;;;;21.02;57.73;99072.56;223599;183;137071;-64
2023/06/25 22:14:31;;;;;;;8.00;5.80;;;;;;;21.06;57.79;99068.23;223645;183;146001;-65
2023/06/25 22:19:35;;;;;;;6.50;4.90;;;;;;;21.01;57.85;99064.48;223574;182;139047;-65
2023/06/25 22:24:39;;;;;;;6.10;5.00;;;;;;;20.99;57.76;99060.52;223773;182;136455;-64
2023/06/25 22:29:42;;;;;;;9.40;5.90;;;;;;;21.02;57.80;99062.60;223657;182;145335;-66
2023/06/25 22:34:46;;;;;;;6.80;5.20;;;;;;;21.01;57.92;99057.98;223813;182;138636;-65
2023/06/25 22:39:50;;;;;;;7.30;5.40;;;;;;;20.99;57.89;99054.26;223696;181;136632;-65
2023/06/25 22:50:43;;;;;;;7.40;5.40;;;;;;;20.99;57.76;99050.52;221470;189;676580;-65
2023/06/25 22:55:46;;;;;;;7.40;6.10;;;;;;;20.91;58.55;99048.48;223639;183;136123;-65
2023/06/25 23:00:49;;;;;;;8.20;5.50;;;;;;;20.79;59.11;99050.42;223454;183;143824;-66
2023/06/25 23:05:53;;;;;;;7.00;6.00;;;;;;;20.66;59.40;99050.38;223565;183;138319;-65
2023/06/25 23:10:56;;;;;;;9.50;5.80;;;;;;;20.54;59.98;99052.48;223671;183;136177;-65
2023/06/25 23:16:00;;;;;;;7.70;6.00;;;;;;;20.44;60.39;99045.92;223627;183;143073;-65
2023/06/25 23:21:04;;;;;;;6.70;5.70;;;;;;;20.32;60.84;99046.98;223605;183;141091;-65
2023/06/25 23:26:08;;;;;;;8.90;5.70;;;;;;;20.19;61.41;99044.92;223582;183;136208;-65
2023/06/25 23:31:13;;;;;;;11.60;6.10;;;;;;;20.06;61.84;99041.55;223530;183;143231;-65
2023/06/25 23:36:17;;;;;;;6.40;5.60;;;;;;;19.95;62.43;99036.11;223599;183;140246;-64
2023/06/25 23:41:22;;;;;;;9.80;5.40;;;;;;;19.88;62.77;99034.29;223693;183;138124;-64
2023/06/25 23:50:47;;;;;;;9.20;6.00;;;;;;;19.84;63.24;99035.42;221065;193;675850;-64
2023/06/25 23:55:50;;;;;;;8.40;6.10;;;;;;;19.75;63.62;99029.67;223628;183;137107;-64
